createdAt,value
2017-12-19T00:00:59.649Z,3.90
2017-12-19T00:03:27.930Z,3.90
2017-12-19T00:05:56.249Z,3.90
2017-12-19T00:08:24.510Z,3.90
2017-12-19T00:10:52.766Z,4.10
2017-12-19T00:13:21.049Z,4.00
2017-12-19T00:15:49.311Z,3.90
2017-12-19T00:18:17.593Z,3.70
2017-12-19T00:20:46.363Z,3.70
2017-12-19T00:23:14.600Z,3.80
2017-12-19T00:25:42.874Z,3.90
2017-12-19T00:28:11.135Z,3.90
2017-12-19T00:30:39.420Z,3.80
2017-12-19T00:33:07.683Z,3.80
2017-12-19T00:35:35.954Z,3.80
2017-12-19T00:38:04.218Z,3.90
2017-12-19T00:40:32.509Z,3.90
2017-12-19T00:43:01.217Z,3.90
2017-12-19T00:45:30.460Z,3.90
2017-12-19T00:47:58.755Z,3.90
2017-12-19T00:50:26.998Z,3.90
2017-12-19T00:52:55.273Z,3.90
2017-12-19T00:55:23.549Z,3.90
2017-12-19T00:57:51.793Z,3.90
2017-12-19T01:00:20.076Z,3.80
2017-12-19T01:02:48.344Z,3.80
2017-12-19T01:05:16.639Z,3.90
2017-12-19T01:07:44.126Z,3.90
2017-12-19T01:10:12.379Z,4.00
2017-12-19T01:12:40.658Z,4.00
2017-12-19T01:15:08.935Z,4.00
2017-12-19T01:17:37.213Z,4.00
2017-12-19T01:20:05.470Z,4.00
2017-12-19T01:22:33.733Z,4.00
2017-12-19T01:25:02.010Z,4.10
2017-12-19T01:27:30.316Z,4.10
2017-12-19T01:29:58.576Z,4.10
2017-12-19T01:32:26.818Z,4.10
2017-12-19T01:34:55.094Z,4.10
2017-12-19T01:37:23.345Z,4.10
2017-12-19T01:39:51.629Z,4.10
2017-12-19T01:42:19.892Z,4.10
2017-12-19T01:44:48.216Z,4.10
2017-12-19T01:47:16.472Z,4.10
2017-12-19T01:49:44.718Z,4.20
2017-12-19T01:52:12.993Z,4.20
2017-12-19T01:54:41.245Z,4.20
2017-12-19T01:57:09.517Z,4.20
2017-12-19T01:59:37.774Z,4.20
2017-12-19T02:02:06.060Z,4.20
2017-12-19T02:04:33.545Z,4.20
2017-12-19T02:07:01.818Z,4.20
2017-12-19T02:09:31.057Z,4.20
2017-12-19T02:11:59.342Z,4.20
2017-12-19T02:14:27.586Z,4.20
2017-12-19T02:16:55.101Z,4.20
2017-12-19T02:19:23.381Z,4.20
2017-12-19T02:21:51.631Z,4.20
2017-12-19T02:24:19.878Z,4.20
2017-12-19T02:26:48.146Z,4.20
2017-12-19T02:29:16.422Z,4.20
2017-12-19T02:31:44.710Z,4.20
2017-12-19T02:34:12.195Z,4.20
2017-12-19T02:36:40.451Z,4.20
2017-12-19T02:39:08.735Z,4.20
2017-12-19T02:41:36.982Z,4.30
2017-12-19T02:44:05.271Z,4.30
2017-12-19T02:46:33.518Z,4.20
2017-12-19T02:49:01.806Z,4.20
2017-12-19T02:51:30.050Z,4.20
2017-12-19T02:53:58.299Z,4.20
2017-12-19T02:56:26.585Z,4.30
2017-12-19T02:58:54.825Z,4.30
2017-12-19T03:01:23.106Z,4.30
2017-12-19T03:03:51.385Z,4.30
2017-12-19T03:06:18.866Z,4.30
2017-12-19T03:08:47.149Z,4.30
2017-12-19T03:11:15.425Z,4.30
2017-12-19T03:13:43.709Z,4.30
2017-12-19T03:16:11.991Z,4.30
2017-12-19T03:18:40.242Z,4.30
2017-12-19T03:21:08.525Z,4.30
2017-12-19T03:23:36.774Z,4.30
2017-12-19T03:26:05.050Z,4.30
2017-12-19T03:28:33.322Z,4.30
2017-12-19T03:31:01.579Z,4.30
2017-12-19T03:33:30.801Z,4.30
2017-12-19T03:35:59.716Z,4.30
2017-12-19T03:38:29.760Z,4.30
2017-12-19T03:40:58.038Z,4.30
2017-12-19T03:43:26.314Z,4.30
2017-12-19T03:45:54.557Z,4.30
2017-12-19T03:48:22.841Z,4.30
2017-12-19T03:50:51.117Z,4.40
2017-12-19T03:53:19.362Z,4.30
2017-12-19T03:55:47.638Z,4.30
2017-12-19T03:58:15.886Z,4.40
2017-12-19T04:00:44.137Z,4.40
2017-12-19T04:03:12.417Z,4.40
2017-12-19T04:05:40.662Z,4.40
2017-12-19T04:08:08.955Z,4.40
2017-12-19T04:10:37.209Z,4.40
2017-12-19T04:13:05.448Z,4.30
2017-12-19T04:15:33.730Z,4.30
2017-12-19T04:18:01.210Z,4.30
2017-12-19T04:20:30.574Z,4.30
2017-12-19T04:22:58.857Z,4.40
2017-12-19T04:25:27.106Z,4.30
2017-12-19T04:27:55.377Z,4.30
2017-12-19T04:30:23.621Z,4.40
2017-12-19T04:32:51.906Z,4.40
2017-12-19T04:35:19.413Z,4.40
2017-12-19T04:37:47.662Z,4.40
2017-12-19T04:40:16.026Z,4.40
2017-12-19T04:42:44.277Z,4.40
2017-12-19T04:45:12.530Z,4.40
2017-12-19T04:47:40.806Z,4.40
2017-12-19T04:50:09.070Z,4.40
2017-12-19T04:52:37.350Z,4.40
2017-12-19T04:55:05.625Z,4.40
2017-12-19T04:57:33.902Z,4.30
2017-12-19T05:00:02.145Z,4.30
2017-12-19T05:02:31.963Z,4.30
2017-12-19T05:05:00.206Z,4.30
2017-12-19T05:07:28.465Z,4.30
2017-12-19T05:09:56.752Z,4.30
2017-12-19T05:12:25.021Z,4.30
2017-12-19T05:14:53.270Z,4.30
2017-12-19T05:17:21.544Z,4.30
2017-12-19T05:19:49.054Z,4.30
2017-12-19T05:22:17.302Z,4.30
2017-12-19T05:24:45.601Z,4.40
2017-12-19T05:27:13.857Z,4.40
2017-12-19T05:29:42.105Z,4.30
2017-12-19T05:32:10.367Z,4.30
2017-12-19T05:34:38.645Z,4.40
2017-12-19T05:37:06.927Z,4.40
2017-12-19T05:39:35.208Z,4.40
2017-12-19T05:42:03.485Z,4.40
2017-12-19T05:44:31.738Z,4.40
2017-12-19T05:47:00.866Z,4.40
2017-12-19T05:49:29.749Z,4.40
2017-12-19T05:51:58.022Z,4.40
2017-12-19T05:54:26.261Z,4.40
2017-12-19T05:56:54.548Z,4.40
2017-12-19T05:59:22.028Z,4.40
2017-12-19T06:01:50.302Z,4.40
2017-12-19T06:04:17.806Z,4.40
2017-12-19T06:06:46.089Z,4.50
2017-12-19T06:09:14.333Z,4.50
2017-12-19T06:11:42.614Z,4.50
2017-12-19T06:14:10.857Z,4.50
2017-12-19T06:16:39.141Z,4.50
2017-12-19T06:19:07.385Z,4.60
2017-12-19T06:21:35.634Z,4.60
2017-12-19T06:24:03.914Z,4.60
2017-12-19T06:26:31.398Z,4.60
2017-12-19T06:29:00.615Z,4.60
2017-12-19T06:31:30.480Z,4.60
2017-12-19T06:33:58.820Z,4.70
2017-12-19T06:36:27.101Z,4.70
2017-12-19T06:38:55.354Z,4.70
2017-12-19T06:41:23.643Z,4.80
2017-12-19T06:43:51.889Z,4.80
2017-12-19T06:46:20.167Z,4.80
2017-12-19T06:48:48.445Z,4.80
2017-12-19T06:51:16.694Z,4.70
2017-12-19T06:53:44.983Z,4.70
2017-12-19T06:56:12.474Z,4.70
2017-12-19T06:58:40.717Z,4.80
2017-12-19T07:01:09.014Z,4.80
2017-12-19T07:03:37.262Z,4.80
2017-12-19T07:06:05.506Z,4.80
2017-12-19T07:08:33.790Z,4.80
2017-12-19T07:11:02.039Z,4.80
2017-12-19T07:13:31.525Z,4.80
2017-12-19T07:16:00.761Z,4.80
2017-12-19T07:18:29.818Z,4.80
2017-12-19T07:20:58.059Z,4.80
2017-12-19T07:23:26.306Z,4.80
2017-12-19T07:25:54.582Z,4.80
2017-12-19T07:28:22.829Z,4.80
2017-12-19T07:30:51.106Z,4.90
2017-12-19T07:33:19.351Z,4.80
2017-12-19T07:35:47.634Z,4.90
2017-12-19T07:38:15.914Z,4.90
2017-12-19T07:40:44.157Z,4.90
2017-12-19T07:43:12.434Z,4.90
2017-12-19T07:45:40.677Z,4.90
2017-12-19T07:48:08.939Z,4.90
2017-12-19T07:50:37.220Z,4.90
2017-12-19T07:53:05.467Z,4.90
2017-12-19T07:55:33.759Z,4.90
2017-12-19T07:58:02.002Z,4.90
2017-12-19T08:00:30.617Z,5.00
2017-12-19T08:02:58.874Z,5.00
2017-12-19T08:05:27.185Z,5.00
2017-12-19T08:07:55.467Z,5.00
2017-12-19T08:10:23.729Z,5.00
2017-12-19T08:12:51.974Z,5.00
2017-12-19T08:15:20.220Z,5.00
2017-12-19T08:17:48.500Z,5.00
2017-12-19T08:20:16.762Z,5.00
2017-12-19T08:22:45.045Z,5.10
2017-12-19T08:25:13.297Z,5.00
2017-12-19T08:27:41.577Z,5.00
2017-12-19T08:30:09.822Z,5.10
2017-12-19T08:32:38.070Z,5.10
2017-12-19T08:35:06.347Z,5.10
2017-12-19T08:37:34.618Z,5.10
2017-12-19T08:40:02.874Z,5.20
2017-12-19T08:42:32.530Z,5.20
2017-12-19T08:45:01.974Z,5.20
2017-12-19T08:47:30.258Z,5.20
2017-12-19T08:49:58.537Z,5.20
2017-12-19T08:52:26.794Z,5.20
2017-12-19T08:54:55.061Z,5.20
2017-12-19T08:57:23.309Z,5.20
2017-12-19T08:59:51.594Z,5.20
2017-12-19T09:02:19.870Z,5.20
2017-12-19T09:04:48.138Z,5.20
2017-12-19T09:07:16.385Z,5.20
2017-12-19T09:09:44.673Z,5.30
2017-12-19T09:12:12.921Z,5.30
2017-12-19T09:14:41.166Z,5.20
2017-12-19T09:17:09.450Z,5.20
2017-12-19T09:19:37.714Z,5.30
2017-12-19T09:22:05.970Z,5.30
2017-12-19T09:24:34.258Z,5.30
2017-12-19T09:27:02.505Z,5.30
2017-12-19T09:29:31.450Z,5.30
2017-12-19T09:32:01.789Z,5.30
2017-12-19T09:34:31.127Z,5.40
2017-12-19T09:36:59.409Z,5.40
2017-12-19T09:39:27.698Z,5.30
2017-12-19T09:41:55.947Z,5.50
2017-12-19T09:44:24.194Z,5.40
2017-12-19T09:46:52.474Z,5.40
2017-12-19T09:49:20.717Z,5.50
2017-12-19T09:51:49.002Z,5.50
2017-12-19T09:54:17.241Z,5.60
2017-12-19T09:56:45.493Z,5.60
2017-12-19T09:59:13.769Z,5.60
2017-12-19T10:01:42.024Z,5.60
2017-12-19T10:04:10.306Z,5.70
2017-12-19T10:06:38.560Z,5.60
2017-12-19T10:09:06.831Z,5.60
2017-12-19T10:11:35.072Z,5.50
2017-12-19T10:14:03.357Z,5.60
2017-12-19T10:16:31.603Z,5.60
2017-12-19T10:19:00.997Z,5.60
2017-12-19T10:21:29.241Z,5.70
2017-12-19T10:23:57.487Z,5.70
2017-12-19T10:26:25.762Z,5.80
2017-12-19T10:28:54.002Z,5.90
2017-12-19T10:31:22.287Z,5.80
2017-12-19T10:33:50.530Z,5.80
2017-12-19T10:36:18.811Z,5.90
2017-12-19T10:38:46.327Z,5.90
2017-12-19T10:41:14.601Z,5.90
2017-12-19T10:43:42.846Z,5.90
2017-12-19T10:46:11.123Z,5.90
2017-12-19T10:48:39.369Z,5.90
2017-12-19T10:51:07.653Z,5.90
2017-12-19T10:53:35.934Z,5.90
2017-12-19T10:56:04.226Z,6.00
2017-12-19T10:58:31.716Z,6.00
2017-12-19T11:01:00.966Z,6.20
2017-12-19T11:03:29.254Z,6.10
2017-12-19T11:05:57.501Z,6.10
2017-12-19T11:08:25.759Z,6.10
2017-12-19T11:10:54.038Z,6.20
2017-12-19T11:13:22.286Z,6.20
2017-12-19T11:15:50.526Z,6.30
2017-12-19T11:18:18.802Z,6.30
2017-12-19T11:20:47.474Z,6.30
2017-12-19T11:23:15.710Z,6.30
2017-12-19T11:25:43.990Z,6.20
2017-12-19T11:28:12.234Z,6.30
2017-12-19T11:30:40.525Z,6.40
2017-12-19T11:33:08.770Z,6.40
2017-12-19T11:35:37.014Z,6.30
2017-12-19T11:38:04.522Z,6.30
2017-12-19T11:40:32.786Z,6.30
2017-12-19T11:43:07.242Z,6.30
2017-12-19T11:45:35.522Z,6.40
2017-12-19T11:48:03.761Z,6.40
2017-12-19T11:50:32.051Z,6.40
2017-12-19T11:53:01.714Z,6.50
2017-12-19T11:55:30.846Z,6.50
2017-12-19T11:57:59.924Z,6.50
2017-12-19T12:00:28.161Z,6.50
2017-12-19T12:02:56.425Z,6.60
2017-12-19T12:05:24.673Z,6.50
2017-12-19T12:07:52.950Z,6.50
2017-12-19T12:10:21.193Z,6.60
2017-12-19T12:12:49.433Z,6.60
2017-12-19T12:15:17.706Z,6.70
2017-12-19T12:17:45.950Z,6.60
2017-12-19T12:20:14.225Z,6.60
2017-12-19T12:22:42.498Z,6.60
2017-12-19T12:25:10.764Z,6.60
2017-12-19T12:27:39.006Z,6.60
2017-12-19T12:30:07.285Z,6.70
2017-12-19T12:32:35.562Z,6.70
2017-12-19T12:35:03.806Z,6.60
2017-12-19T12:37:32.358Z,6.70
2017-12-19T12:40:01.939Z,6.70
2017-12-19T12:42:30.174Z,6.70
2017-12-19T12:44:58.417Z,6.70
2017-12-19T12:47:26.697Z,6.70
2017-12-19T12:49:54.974Z,6.60
2017-12-19T12:52:23.246Z,6.70
2017-12-19T12:54:51.525Z,6.70
2017-12-19T12:57:19.800Z,6.60
2017-12-19T12:59:48.046Z,6.70
2017-12-19T13:02:16.337Z,6.70
2017-12-19T13:04:44.579Z,6.80
2017-12-19T13:07:12.813Z,6.70
2017-12-19T13:09:40.330Z,6.70
2017-12-19T13:12:08.574Z,6.70
2017-12-19T13:14:36.842Z,6.70
2017-12-19T13:17:05.090Z,6.80
2017-12-19T13:19:33.373Z,6.80
2017-12-19T13:22:01.615Z,6.90
2017-12-19T13:24:31.520Z,6.90
2017-12-19T13:27:00.873Z,6.90
2017-12-19T13:29:29.945Z,6.90
2017-12-19T13:31:58.182Z,6.90
2017-12-19T13:34:26.456Z,6.90
2017-12-19T13:36:54.697Z,6.80
2017-12-19T13:39:22.970Z,6.80
2017-12-19T13:41:51.234Z,6.90
2017-12-19T13:44:19.518Z,6.90
2017-12-19T13:46:47.762Z,6.80
2017-12-19T13:49:16.003Z,6.90
2017-12-19T13:51:44.274Z,6.80
2017-12-19T13:54:12.550Z,6.80
2017-12-19T13:56:40.030Z,6.80
2017-12-19T13:59:08.322Z,6.80
2017-12-19T14:01:36.562Z,6.80
2017-12-19T14:04:04.805Z,6.80
2017-12-19T14:06:33.089Z,6.90
2017-12-19T14:09:01.334Z,7.00
2017-12-19T14:11:30.679Z,7.00
2017-12-19T14:14:00.096Z,7.00
2017-12-19T14:16:28.348Z,7.00
2017-12-19T14:18:56.590Z,7.10
2017-12-19T14:21:24.858Z,7.00
2017-12-19T14:23:53.125Z,7.00
2017-12-19T14:26:21.382Z,7.00
2017-12-19T14:28:49.657Z,7.00
2017-12-19T14:31:17.902Z,7.00
2017-12-19T14:33:53.562Z,6.90
2017-12-19T14:36:21.859Z,6.90
2017-12-19T14:38:50.089Z,7.00
2017-12-19T14:41:19.409Z,7.00
2017-12-19T14:43:47.682Z,7.00
2017-12-19T14:46:16.876Z,6.90
2017-12-19T14:48:45.121Z,6.90
2017-12-19T14:51:16.726Z,6.90
2017-12-19T14:53:44.986Z,6.90
2017-12-19T14:56:13.264Z,6.90
2017-12-19T14:58:41.506Z,6.90
2017-12-19T15:01:09.749Z,6.90
2017-12-19T15:03:38.022Z,6.90
2017-12-19T15:06:06.262Z,6.90
2017-12-19T15:08:36.503Z,6.90
2017-12-19T15:11:04.773Z,6.90
2017-12-19T15:13:32.282Z,6.80
2017-12-19T15:16:02.501Z,6.80
2017-12-19T15:18:31.626Z,6.80
2017-12-19T15:21:00.829Z,6.80
2017-12-19T15:23:29.962Z,6.80
2017-12-19T15:25:58.238Z,6.80
2017-12-19T15:28:26.473Z,6.80
2017-12-19T15:30:54.723Z,6.70
2017-12-19T15:33:22.232Z,6.70
2017-12-19T15:35:50.495Z,6.80
2017-12-19T15:38:18.770Z,6.80
2017-12-19T15:40:47.444Z,6.80
2017-12-19T15:43:15.717Z,6.90
2017-12-19T15:45:43.959Z,6.80
2017-12-19T15:48:12.238Z,6.80
2017-12-19T15:50:40.486Z,6.70
2017-12-19T15:53:08.724Z,6.70
2017-12-19T15:55:37.002Z,6.60
2017-12-19T15:58:05.250Z,6.60
2017-12-19T16:00:33.521Z,6.60
2017-12-19T16:03:01.811Z,6.70
2017-12-19T16:05:30.054Z,6.70
2017-12-19T16:07:58.294Z,6.60
2017-12-19T16:10:26.570Z,6.60
2017-12-19T16:12:54.834Z,6.60
2017-12-19T16:15:23.082Z,6.50
2017-12-19T16:17:51.346Z,6.50
2017-12-19T16:20:19.623Z,6.60
2017-12-19T16:22:47.861Z,6.50
2017-12-19T16:25:16.137Z,6.50
2017-12-19T16:27:44.378Z,6.50
2017-12-19T16:30:12.645Z,6.50
2017-12-19T16:32:40.895Z,6.50
2017-12-19T16:35:09.169Z,6.50
2017-12-19T16:37:37.417Z,6.60
2017-12-19T16:40:05.689Z,6.50
2017-12-19T16:42:33.965Z,6.50
2017-12-19T16:45:01.485Z,6.50
2017-12-19T16:47:29.763Z,6.50
2017-12-19T16:49:58.022Z,6.50
2017-12-19T16:52:26.297Z,6.60
2017-12-19T16:54:54.583Z,6.50
2017-12-19T16:57:22.870Z,6.50
2017-12-19T16:59:51.151Z,6.40
2017-12-19T17:02:19.389Z,6.50
2017-12-19T17:04:47.666Z,6.40
2017-12-19T17:07:15.912Z,6.50
2017-12-19T17:09:44.198Z,6.40
2017-12-19T17:12:12.446Z,6.50
2017-12-19T17:14:40.718Z,6.50
2017-12-19T17:17:08.960Z,6.40
2017-12-19T17:19:37.237Z,6.40
2017-12-19T17:22:05.514Z,6.40
2017-12-19T17:24:33.819Z,6.40
2017-12-19T17:27:02.114Z,6.40
2017-12-19T17:29:31.613Z,6.30
2017-12-19T17:32:01.502Z,6.30
2017-12-19T17:34:29.333Z,6.30
2017-12-19T17:36:57.574Z,6.20
2017-12-19T17:39:25.829Z,6.30
2017-12-19T17:41:54.097Z,6.20
2017-12-19T17:44:22.354Z,6.30
2017-12-19T17:46:50.626Z,6.20
2017-12-19T17:49:18.907Z,6.20
2017-12-19T17:51:47.226Z,6.20
2017-12-19T17:54:15.511Z,6.20
2017-12-19T17:56:43.801Z,6.10
2017-12-19T17:59:12.120Z,6.10
2017-12-19T18:01:40.441Z,6.00
2017-12-19T18:04:08.710Z,6.20
2017-12-19T18:06:36.958Z,6.10
2017-12-19T18:09:05.233Z,6.10
2017-12-19T18:11:33.527Z,6.10
2017-12-19T18:14:01.810Z,6.00
2017-12-19T18:16:31.054Z,6.00
2017-12-19T18:18:59.367Z,6.00
2017-12-19T18:21:27.664Z,6.00
2017-12-19T18:23:55.959Z,5.90
2017-12-19T18:26:24.243Z,6.00
2017-12-19T18:28:52.494Z,6.00
2017-12-19T18:31:20.769Z,6.00
2017-12-19T18:33:49.064Z,6.00
2017-12-19T18:36:17.392Z,6.00
2017-12-19T18:38:45.685Z,6.00
2017-12-19T18:41:13.933Z,5.90
2017-12-19T18:43:42.257Z,5.90
2017-12-19T18:46:10.549Z,5.80
2017-12-19T18:48:38.825Z,5.80
2017-12-19T18:51:07.115Z,5.80
2017-12-19T18:53:35.443Z,5.80
2017-12-19T18:56:03.768Z,5.70
2017-12-19T18:58:31.297Z,5.70
2017-12-19T19:01:00.542Z,5.80
2017-12-19T19:03:28.873Z,5.70
2017-12-19T19:05:57.192Z,5.70
2017-12-19T19:08:25.446Z,5.60
2017-12-19T19:10:53.773Z,5.70
2017-12-19T19:13:22.098Z,5.70
2017-12-19T19:15:50.441Z,5.80
2017-12-19T19:18:18.772Z,5.80
2017-12-19T19:20:48.069Z,5.70
2017-12-19T19:23:16.409Z,5.80
2017-12-19T19:25:45.724Z,5.70
2017-12-19T19:28:14.076Z,5.70
2017-12-19T19:30:44.337Z,5.70
2017-12-19T19:33:12.673Z,5.70
2017-12-19T19:35:42.170Z,5.70
2017-12-19T19:38:10.455Z,5.70
2017-12-19T19:40:40.793Z,5.60
2017-12-19T19:43:09.093Z,5.70
2017-12-19T19:45:36.578Z,5.60
2017-12-19T19:48:04.904Z,5.70
2017-12-19T19:50:33.209Z,5.70
2017-12-19T19:53:01.589Z,5.70
2017-12-19T19:55:34.275Z,5.70
2017-12-19T19:58:02.590Z,5.80
2017-12-19T20:00:34.337Z,5.80
2017-12-19T20:03:02.649Z,5.80
2017-12-19T20:05:31.736Z,5.70
2017-12-19T20:08:04.941Z,5.80
2017-12-19T20:10:33.265Z,5.70
2017-12-19T20:13:01.561Z,5.80
2017-12-19T20:15:31.056Z,5.70
2017-12-19T20:17:59.326Z,5.70
2017-12-19T20:20:27.658Z,5.60
2017-12-19T20:22:55.902Z,5.60
2017-12-19T20:25:28.684Z,5.60
2017-12-19T20:27:56.930Z,5.60
2017-12-19T20:30:32.531Z,5.60
2017-12-19T20:33:04.493Z,5.60
2017-12-19T20:35:37.098Z,5.60
2017-12-19T20:38:04.669Z,5.50
2017-12-19T20:40:32.972Z,5.60
2017-12-19T20:43:01.298Z,5.60
2017-12-19T20:45:30.354Z,5.60
2017-12-19T20:48:10.683Z,5.60
2017-12-19T20:50:38.984Z,5.60
2017-12-19T20:53:07.269Z,5.70
2017-12-19T20:55:35.569Z,5.60
2017-12-19T20:58:04.777Z,5.60
2017-12-19T21:00:32.305Z,5.60
2017-12-19T21:03:01.725Z,5.60
2017-12-19T21:05:30.929Z,5.70
2017-12-19T21:08:04.501Z,5.70
2017-12-19T21:10:32.862Z,5.70
2017-12-19T21:13:01.817Z,5.70
2017-12-19T21:15:30.681Z,5.70
2017-12-19T21:18:00.167Z,5.70
2017-12-19T21:20:30.402Z,5.70
2017-12-19T21:22:58.705Z,5.70
2017-12-19T21:25:27.006Z,5.70
2017-12-19T21:27:55.333Z,5.70
2017-12-19T21:30:24.511Z,5.70
2017-12-19T21:32:52.849Z,5.70
2017-12-19T21:35:21.174Z,5.80
2017-12-19T21:37:49.536Z,5.70
2017-12-19T21:40:20.616Z,5.70
2017-12-19T21:42:48.942Z,5.70
2017-12-19T21:45:18.217Z,5.70
2017-12-19T21:47:46.537Z,5.70
2017-12-19T21:50:14.885Z,5.70
2017-12-19T21:52:43.179Z,5.70
2017-12-19T21:55:12.465Z,5.70
2017-12-19T21:57:40.798Z,5.70
2017-12-19T22:00:12.445Z,5.70
2017-12-19T22:02:40.782Z,5.80
2017-12-19T22:05:21.257Z,5.80
2017-12-19T22:07:49.586Z,5.70
2017-12-19T22:10:24.339Z,5.80
2017-12-19T22:12:52.633Z,5.80
2017-12-19T22:15:21.920Z,5.80
2017-12-19T22:17:50.252Z,5.70
2017-12-19T22:20:19.456Z,5.70
2017-12-19T22:22:47.701Z,5.80
2017-12-19T22:25:20.049Z,5.70
2017-12-19T22:27:48.354Z,5.70
2017-12-19T22:30:31.148Z,5.80
2017-12-19T22:33:00.601Z,5.80
2017-12-19T22:35:35.938Z,5.70
2017-12-19T22:38:04.261Z,5.70
2017-12-19T22:40:40.913Z,5.70
2017-12-19T22:43:09.245Z,5.70
2017-12-19T22:45:37.540Z,5.70
2017-12-19T22:48:05.842Z,5.80
2017-12-19T22:50:34.202Z,5.80
2017-12-19T22:53:02.505Z,5.80
2017-12-19T22:55:44.840Z,5.90
2017-12-19T22:58:13.082Z,5.80
2017-12-19T23:00:41.413Z,5.80
2017-12-19T23:03:09.894Z,5.80
2017-12-19T23:05:38.184Z,5.80
2017-12-19T23:08:06.477Z,5.80
2017-12-19T23:10:36.785Z,5.80
2017-12-19T23:13:05.081Z,5.80
2017-12-19T23:15:49.758Z,5.90
2017-12-19T23:18:18.135Z,5.90
2017-12-19T23:20:48.322Z,5.90
2017-12-19T23:23:16.618Z,5.90
2017-12-19T23:25:44.860Z,5.90
2017-12-19T23:28:13.132Z,6.00
2017-12-19T23:30:58.125Z,5.90
2017-12-19T23:33:26.417Z,5.90
2017-12-19T23:35:55.661Z,6.00
2017-12-19T23:38:23.955Z,5.90
2017-12-19T23:40:52.249Z,6.00
2017-12-19T23:43:20.497Z,6.00
2017-12-19T23:45:52.173Z,5.90
2017-12-19T23:48:19.684Z,5.90
2017-12-19T23:50:47.932Z,6.00
2017-12-19T23:53:16.193Z,5.90
2017-12-19T23:55:45.457Z,5.90
2017-12-19T23:58:13.698Z,5.90
